createdAt,value
2018-07-13T00:00:42.719Z,11.97
2018-07-13T00:03:11.965Z,12.00
2018-07-13T00:05:40.202Z,11.80
2018-07-13T00:08:08.460Z,11.33
2018-07-13T00:10:36.696Z,11.53
2018-07-13T00:13:05.161Z,12.00
2018-07-13T00:15:33.419Z,11.67
2018-07-13T00:18:01.780Z,12.20
2018-07-13T00:20:30.035Z,11.70
2018-07-13T00:22:58.307Z,11.83
2018-07-13T00:25:26.605Z,12.60
2018-07-13T00:27:54.847Z,11.80
2018-07-13T00:30:23.136Z,11.53
2018-07-13T00:32:52.337Z,11.33
2018-07-13T00:35:20.631Z,11.70
2018-07-13T00:37:48.863Z,10.83
2018-07-13T00:40:17.164Z,11.67
2018-07-13T00:42:45.453Z,11.23
2018-07-13T00:45:13.795Z,10.83
2018-07-13T00:47:42.028Z,11.37
2018-07-13T00:50:10.297Z,10.87
2018-07-13T00:52:38.588Z,11.00
2018-07-13T00:55:06.983Z,11.00
2018-07-13T00:57:35.218Z,11.43
2018-07-13T01:00:04.105Z,10.77
2018-07-13T01:02:32.867Z,10.33
2018-07-13T01:05:01.193Z,11.50
2018-07-13T01:07:29.133Z,11.67
2018-07-13T01:09:57.378Z,12.20
2018-07-13T01:12:25.643Z,11.90
2018-07-13T01:14:53.944Z,12.67
2018-07-13T01:17:22.943Z,11.97
2018-07-13T01:19:51.236Z,12.43
2018-07-13T01:22:19.465Z,12.80
2018-07-13T01:24:50.964Z,12.77
2018-07-13T01:27:19.242Z,11.70
2018-07-13T01:29:47.485Z,12.43
2018-07-13T01:32:15.744Z,11.53
2018-07-13T01:34:43.984Z,11.37
2018-07-13T01:37:12.230Z,11.80
2018-07-13T01:39:40.569Z,11.77
2018-07-13T01:42:08.814Z,11.50
2018-07-13T01:44:37.081Z,11.73
2018-07-13T01:47:05.292Z,11.53
2018-07-13T01:49:33.563Z,11.27
2018-07-13T01:52:01.789Z,12.10
2018-07-13T01:54:30.055Z,11.90
2018-07-13T01:56:58.335Z,11.90
2018-07-13T01:59:26.626Z,11.93
2018-07-13T02:01:54.870Z,12.23
2018-07-13T02:04:23.103Z,11.83
2018-07-13T02:06:51.483Z,12.10
2018-07-13T02:09:19.736Z,11.57
2018-07-13T02:11:48.011Z,11.50
2018-07-13T02:14:16.270Z,11.40
2018-07-13T02:16:44.541Z,11.73
2018-07-13T02:19:12.803Z,11.50
2018-07-13T02:21:41.072Z,11.73
2018-07-13T02:24:09.391Z,12.57
2018-07-13T02:26:37.648Z,11.90
2018-07-13T02:29:06.162Z,11.93
2018-07-13T02:31:34.383Z,13.20
2018-07-13T02:34:02.672Z,12.53
2018-07-13T02:36:31.027Z,11.93
2018-07-13T02:38:59.345Z,12.33
2018-07-13T02:41:27.512Z,11.87
2018-07-13T02:43:55.771Z,11.20
2018-07-13T02:46:24.086Z,11.07
2018-07-13T02:48:52.492Z,11.23
2018-07-13T02:51:20.735Z,11.57
2018-07-13T02:53:49.003Z,11.47
2018-07-13T02:56:17.250Z,11.77
2018-07-13T02:58:45.498Z,11.53
2018-07-13T03:01:13.769Z,12.60
2018-07-13T03:03:42.000Z,10.87
2018-07-13T03:06:10.403Z,11.57
2018-07-13T03:08:38.747Z,12.23
2018-07-13T03:11:07.123Z,11.83
2018-07-13T03:13:35.411Z,12.13
2018-07-13T03:16:03.738Z,15.50
2018-07-13T03:18:32.070Z,15.77
2018-07-13T03:21:00.532Z,14.47
2018-07-13T03:23:28.801Z,13.63
2018-07-13T03:25:57.121Z,12.37
2018-07-13T03:28:25.372Z,12.53
2018-07-13T03:30:53.647Z,13.90
2018-07-13T03:33:21.954Z,13.17
2018-07-13T03:35:49.924Z,14.27
2018-07-13T03:38:18.246Z,18.73
2018-07-13T03:40:46.448Z,14.13
2018-07-13T03:43:14.768Z,12.43
2018-07-13T03:45:43.045Z,14.13
2018-07-13T03:48:11.375Z,11.40
2018-07-13T03:50:39.716Z,11.10
2018-07-13T03:53:07.960Z,11.33
2018-07-13T03:55:36.203Z,11.77
2018-07-13T03:58:04.503Z,11.30
2018-07-13T04:00:32.831Z,9.87
2018-07-13T04:03:01.116Z,9.90
2018-07-13T04:05:29.371Z,10.23
2018-07-13T04:07:57.719Z,9.90
2018-07-13T04:10:25.722Z,10.37
2018-07-13T04:12:53.988Z,9.80
2018-07-13T04:15:22.260Z,9.40
2018-07-13T04:17:50.582Z,10.43
2018-07-13T04:20:18.893Z,15.07
2018-07-13T04:22:47.223Z,11.90
2018-07-13T04:25:15.560Z,9.83
2018-07-13T04:27:44.286Z,10.07
2018-07-13T04:30:12.555Z,9.37
2018-07-13T04:32:40.873Z,9.53
2018-07-13T04:35:09.142Z,9.80
2018-07-13T04:37:37.423Z,14.47
2018-07-13T04:40:05.714Z,16.03
2018-07-13T04:42:34.010Z,11.37
2018-07-13T04:45:02.280Z,9.20
2018-07-13T04:47:30.539Z,9.93
2018-07-13T04:49:58.860Z,16.30
2018-07-13T04:52:27.148Z,10.00
2018-07-13T04:54:55.407Z,9.37
2018-07-13T04:57:23.702Z,9.87
2018-07-13T04:59:52.006Z,9.60
2018-07-13T05:02:20.372Z,11.43
2018-07-13T05:04:48.589Z,10.27
2018-07-13T05:07:16.887Z,9.43
2018-07-13T05:09:45.190Z,9.70
2018-07-13T05:12:13.498Z,10.47
2018-07-13T05:14:41.767Z,11.67
2018-07-13T05:17:10.049Z,10.10
2018-07-13T05:19:38.580Z,8.80
2018-07-13T05:22:06.975Z,9.80
2018-07-13T05:24:35.270Z,10.50
2018-07-13T05:27:03.713Z,10.47
2018-07-13T05:29:32.026Z,10.77
2018-07-13T05:32:00.315Z,9.93
2018-07-13T05:34:28.576Z,9.23
2018-07-13T05:36:56.876Z,10.20
2018-07-13T05:39:25.135Z,10.47
2018-07-13T05:41:53.422Z,10.33
2018-07-13T05:44:21.700Z,10.23
2018-07-13T05:46:49.994Z,11.00
2018-07-13T05:49:18.224Z,10.43
2018-07-13T05:51:46.523Z,10.87
2018-07-13T05:54:15.062Z,10.30
2018-07-13T05:56:43.400Z,9.60
2018-07-13T05:59:11.647Z,11.03
2018-07-13T06:01:39.958Z,10.73
2018-07-13T06:04:11.490Z,10.43
2018-07-13T06:06:39.924Z,10.93
2018-07-13T06:09:10.128Z,10.97
2018-07-13T06:11:38.709Z,10.73
2018-07-13T06:14:07.149Z,10.37
2018-07-13T06:16:35.762Z,10.17
2018-07-13T06:19:04.078Z,11.33
2018-07-13T06:21:32.364Z,11.30
2018-07-13T06:24:00.921Z,11.33
2018-07-13T06:26:29.345Z,11.53
2018-07-13T06:28:57.622Z,11.07
2018-07-13T06:31:25.918Z,11.83
2018-07-13T06:33:54.162Z,12.27
2018-07-13T06:36:22.549Z,12.23
2018-07-13T06:38:57.232Z,11.83
2018-07-13T06:41:25.575Z,13.40
2018-07-13T06:43:53.848Z,12.13
2018-07-13T06:46:22.130Z,12.97
2018-07-13T06:48:50.329Z,12.57
2018-07-13T06:51:18.620Z,12.70
2018-07-13T06:53:46.903Z,11.90
2018-07-13T06:56:15.167Z,12.03
2018-07-13T06:59:16.845Z,11.80
2018-07-13T07:01:45.737Z,11.43
2018-07-13T07:04:37.240Z,11.00
2018-07-13T07:07:10.052Z,12.13
2018-07-13T07:09:39.348Z,10.63
2018-07-13T07:13:18.174Z,10.98
2018-07-13T07:15:46.394Z,10.75
2018-07-13T07:18:14.440Z,10.93
2018-07-13T07:20:42.671Z,12.37
2018-07-13T07:23:10.953Z,10.68
2018-07-13T07:25:39.239Z,10.78
2018-07-13T07:28:07.540Z,11.08
2018-07-13T07:30:35.954Z,10.95
2018-07-13T07:33:04.226Z,11.65
2018-07-13T07:35:32.193Z,10.82
2018-07-13T07:38:00.243Z,11.95
2018-07-13T07:40:28.476Z,11.83
2018-07-13T07:42:56.747Z,12.65
2018-07-13T07:45:25.088Z,12.98
2018-07-13T07:47:53.373Z,11.83
2018-07-13T07:50:22.569Z,11.33
2018-07-13T07:52:50.970Z,11.60
2018-07-13T07:55:19.656Z,11.38
2018-07-13T07:57:47.928Z,10.45
2018-07-13T08:00:16.196Z,11.33
2018-07-13T08:02:44.471Z,10.98
2018-07-13T08:05:12.830Z,10.78
2018-07-13T08:07:41.195Z,10.15
2018-07-13T08:10:09.414Z,10.98
2018-07-13T08:12:37.724Z,12.53
2018-07-13T08:15:06.022Z,12.73
2018-07-13T08:17:34.278Z,11.55
2018-07-13T08:20:02.916Z,12.47
2018-07-13T08:22:33.175Z,12.20
2018-07-13T08:25:02.368Z,13.28
2018-07-13T08:27:44.478Z,12.05
2018-07-13T08:30:17.712Z,10.40
2018-07-13T08:32:46.520Z,14.07
2018-07-13T08:35:15.234Z,12.33
2018-07-13T08:37:43.546Z,12.03
2018-07-13T08:40:11.894Z,12.43
2018-07-13T08:42:40.549Z,11.60
2018-07-13T08:45:09.063Z,10.53
2018-07-13T08:47:37.323Z,10.32
2018-07-13T08:50:05.736Z,10.70
2018-07-13T08:52:34.902Z,11.22
2018-07-13T08:55:08.129Z,10.80
2018-07-13T08:57:36.435Z,11.22
2018-07-13T09:00:05.117Z,10.60
2018-07-13T09:02:33.111Z,10.43
2018-07-13T09:05:01.792Z,10.18
2018-07-13T09:07:31.163Z,9.68
2018-07-13T09:09:59.819Z,9.80
2018-07-13T09:12:28.628Z,8.15
2018-07-13T09:14:56.933Z,9.70
2018-07-13T09:17:25.228Z,9.00
2018-07-13T09:19:53.626Z,8.70
2018-07-13T09:22:22.594Z,7.37
2018-07-13T09:24:50.828Z,6.42
2018-07-13T09:27:19.155Z,8.53
2018-07-13T09:29:47.549Z,7.95
2018-07-13T09:32:16.003Z,8.73
2018-07-13T09:34:44.247Z,8.48
2018-07-13T09:37:12.528Z,9.03
2018-07-13T09:39:40.504Z,9.35
2018-07-13T09:42:08.587Z,9.18
2018-07-13T09:44:36.861Z,9.38
2018-07-13T09:47:05.027Z,9.05
2018-07-13T09:49:33.212Z,8.45
2018-07-13T09:52:01.542Z,8.73
2018-07-13T09:54:29.822Z,9.28
2018-07-13T09:56:58.156Z,9.58
2018-07-13T09:59:26.680Z,9.60
2018-07-13T10:01:55.519Z,8.88
2018-07-13T10:04:23.846Z,8.70
2018-07-13T10:06:52.733Z,7.80
2018-07-13T10:09:21.146Z,7.95
2018-07-13T10:11:49.351Z,6.72
2018-07-13T10:14:17.761Z,6.17
2018-07-13T10:16:46.029Z,5.55
2018-07-13T10:19:14.333Z,5.47
2018-07-13T10:21:44.074Z,5.25
2018-07-13T10:24:15.631Z,6.37
2018-07-13T10:26:44.000Z,5.03
2018-07-13T10:29:17.689Z,6.45
2018-07-13T10:31:46.052Z,6.03
2018-07-13T10:34:16.579Z,5.55
2018-07-13T10:36:54.636Z,6.03
2018-07-13T10:39:23.263Z,5.67
2018-07-13T10:41:52.308Z,5.28
2018-07-13T10:44:20.663Z,5.75
2018-07-13T10:46:49.102Z,5.05
2018-07-13T10:49:17.596Z,4.97
2018-07-13T10:51:46.457Z,4.65
2018-07-13T10:54:15.169Z,4.05
2018-07-13T10:56:43.476Z,4.55
2018-07-13T10:59:11.790Z,4.50
2018-07-13T11:01:40.417Z,3.45
2018-07-13T11:04:09.270Z,3.65
2018-07-13T11:06:37.571Z,3.98
2018-07-13T11:09:06.751Z,3.40
2018-07-13T11:11:35.192Z,3.55
2018-07-13T11:14:04.765Z,4.62
2018-07-13T11:16:33.178Z,3.30
2018-07-13T11:19:01.859Z,3.10
2018-07-13T11:21:30.208Z,3.33
2018-07-13T11:23:58.916Z,2.95
2018-07-13T11:26:27.212Z,3.75
2018-07-13T11:28:55.568Z,3.25
2018-07-13T11:31:23.822Z,3.42
2018-07-13T11:33:52.135Z,3.27
2018-07-13T11:36:20.411Z,3.08
2018-07-13T11:38:48.748Z,3.00
2018-07-13T11:41:17.065Z,3.58
2018-07-13T11:43:45.535Z,3.22
2018-07-13T11:46:14.261Z,3.02
2018-07-13T11:48:42.548Z,2.45
2018-07-13T11:51:11.052Z,2.42
2018-07-13T11:53:45.887Z,2.60
2018-07-13T11:56:14.656Z,2.25
2018-07-13T11:58:43.005Z,2.58
2018-07-13T12:01:11.266Z,2.30
2018-07-13T12:03:39.545Z,2.60
2018-07-13T12:06:08.286Z,2.30
2018-07-13T12:08:36.594Z,2.87
2018-07-13T12:11:04.928Z,2.80
2018-07-13T12:13:33.212Z,2.72
2018-07-13T12:16:01.487Z,2.72
2018-07-13T12:18:29.799Z,2.85
2018-07-13T12:20:57.821Z,2.85
2018-07-13T12:23:26.542Z,3.12
2018-07-13T12:26:01.392Z,2.65
2018-07-13T12:28:29.417Z,2.90
2018-07-13T12:30:57.711Z,2.70
2018-07-13T12:33:25.956Z,8.43
2018-07-13T12:35:54.363Z,2.30
2018-07-13T12:38:22.616Z,2.42
2018-07-13T12:40:50.880Z,2.58
2018-07-13T12:43:19.167Z,2.35
2018-07-13T12:45:47.468Z,2.45
2018-07-13T12:48:15.765Z,2.10
2018-07-13T12:50:44.076Z,2.45
2018-07-13T12:53:12.384Z,1.95
2018-07-13T12:55:40.683Z,2.00
2018-07-13T12:58:09.054Z,2.20
2018-07-13T13:00:40.376Z,2.02
2018-07-13T13:03:08.715Z,2.25
2018-07-13T13:05:37.081Z,2.47
2018-07-13T13:08:05.547Z,2.55
2018-07-13T13:10:34.324Z,2.22
2018-07-13T13:13:02.602Z,2.10
2018-07-13T13:15:30.880Z,1.80
2018-07-13T13:17:59.177Z,2.25
2018-07-13T13:20:27.514Z,2.58
2018-07-13T13:22:55.811Z,2.42
2018-07-13T13:25:24.030Z,2.30
2018-07-13T13:27:53.235Z,2.75
2018-07-13T13:30:21.562Z,2.40
2018-07-13T13:32:49.831Z,3.27
2018-07-13T13:35:18.122Z,2.42
2018-07-13T13:37:46.359Z,2.27
2018-07-13T13:40:14.653Z,2.15
2018-07-13T13:42:46.141Z,1.87
2018-07-13T13:45:14.376Z,2.62
2018-07-13T13:47:42.764Z,2.10
2018-07-13T13:50:11.036Z,2.50
2018-07-13T13:52:39.352Z,2.45
2018-07-13T13:55:07.395Z,4.05
2018-07-13T13:57:36.123Z,2.70
2018-07-13T14:00:04.850Z,2.52
2018-07-13T14:02:33.268Z,2.70
2018-07-13T14:05:01.355Z,2.15
2018-07-13T14:07:29.640Z,2.60
2018-07-13T14:09:57.911Z,2.65
2018-07-13T14:12:26.326Z,2.30
2018-07-13T14:14:54.714Z,2.55
2018-07-13T14:17:22.630Z,2.10
2018-07-13T14:19:50.878Z,2.62
2018-07-13T14:22:19.164Z,2.20
2018-07-13T14:24:47.566Z,2.77
2018-07-13T14:27:15.855Z,2.12
2018-07-13T14:29:44.138Z,1.77
2018-07-13T14:32:12.410Z,2.27
2018-07-13T14:34:40.708Z,2.25
2018-07-13T14:37:09.045Z,2.12
2018-07-13T14:39:37.355Z,2.75
2018-07-13T14:42:05.626Z,2.60
2018-07-13T14:44:33.899Z,2.35
2018-07-13T14:47:02.217Z,2.08
2018-07-13T14:49:32.149Z,2.12
2018-07-13T14:52:00.415Z,2.20
2018-07-13T14:54:28.742Z,2.35
2018-07-13T14:56:56.981Z,2.10
2018-07-13T14:59:25.291Z,2.22
2018-07-13T15:01:53.751Z,2.08
2018-07-13T15:04:21.808Z,2.22
2018-07-13T15:06:50.450Z,2.15
2018-07-13T15:09:18.360Z,2.10
2018-07-13T15:11:46.609Z,2.08
2018-07-13T15:14:14.970Z,2.55
2018-07-13T15:16:43.274Z,2.50
2018-07-13T15:19:11.538Z,2.22
2018-07-13T15:21:39.802Z,1.92
2018-07-13T15:24:08.095Z,1.80
2018-07-13T15:26:36.368Z,2.25
2018-07-13T15:29:04.726Z,1.90
2018-07-13T15:31:32.971Z,2.10
2018-07-13T15:34:01.211Z,2.22
2018-07-13T15:36:29.496Z,2.25
2018-07-13T15:38:57.716Z,2.27
2018-07-13T15:41:25.963Z,2.15
2018-07-13T15:43:54.199Z,2.10
2018-07-13T15:46:22.549Z,2.02
2018-07-13T15:48:51.056Z,2.20
2018-07-13T15:51:19.346Z,2.60
2018-07-13T15:53:47.587Z,2.33
2018-07-13T15:56:15.903Z,2.50
2018-07-13T15:58:44.410Z,2.20
2018-07-13T16:01:12.499Z,2.00
2018-07-13T16:03:40.870Z,2.00
2018-07-13T16:06:09.266Z,2.15
2018-07-13T16:08:37.647Z,2.55
2018-07-13T16:11:06.041Z,2.10
2018-07-13T16:13:35.351Z,1.87
2018-07-13T16:16:03.655Z,2.22
2018-07-13T16:18:31.892Z,2.42
2018-07-13T16:21:00.210Z,1.82
2018-07-13T16:23:28.446Z,2.60
2018-07-13T16:25:57.550Z,2.00
2018-07-13T16:28:25.835Z,2.33
2018-07-13T16:30:54.049Z,2.40
2018-07-13T16:33:22.327Z,2.30
2018-07-13T16:35:50.621Z,2.30
2018-07-13T16:38:19.058Z,2.60
2018-07-13T16:40:47.380Z,2.42
2018-07-13T16:43:15.655Z,2.37
2018-07-13T16:45:44.014Z,2.20
2018-07-13T16:48:12.260Z,2.27
2018-07-13T16:50:40.619Z,2.42
2018-07-13T16:53:08.838Z,2.17
2018-07-13T16:55:37.066Z,2.83
2018-07-13T16:58:05.295Z,3.10
2018-07-13T17:00:33.558Z,3.30
2018-07-13T17:03:01.872Z,2.90
2018-07-13T17:05:31.107Z,2.30
2018-07-13T17:07:59.401Z,2.17
2018-07-13T17:10:27.819Z,2.17
2018-07-13T17:12:56.187Z,2.83
2018-07-13T17:15:24.690Z,3.08
2018-07-13T17:17:52.966Z,2.83
2018-07-13T17:20:21.431Z,3.02
2018-07-13T17:22:49.417Z,2.80
2018-07-13T17:25:17.734Z,2.65
2018-07-13T17:27:46.064Z,2.47
2018-07-13T17:30:14.447Z,2.75
2018-07-13T17:32:42.923Z,5.12
2018-07-13T17:35:11.673Z,2.95
2018-07-13T17:37:39.967Z,3.08
2018-07-13T17:40:08.255Z,2.65
2018-07-13T17:42:36.694Z,2.90
2018-07-13T17:45:05.078Z,3.05
2018-07-13T17:47:33.049Z,3.00
2018-07-13T17:50:01.027Z,2.80
2018-07-13T17:52:29.472Z,2.37
2018-07-13T17:54:57.755Z,2.70
2018-07-13T17:57:26.001Z,3.00
2018-07-13T17:59:54.222Z,3.25
2018-07-13T18:02:22.472Z,2.70
2018-07-13T18:04:50.871Z,2.70
2018-07-13T18:07:19.252Z,2.62
2018-07-13T18:09:47.479Z,2.70
2018-07-13T18:12:15.848Z,2.70
2018-07-13T18:14:44.195Z,2.80
2018-07-13T18:17:12.238Z,2.80
2018-07-13T18:19:40.508Z,2.90
2018-07-13T18:22:08.918Z,2.80
2018-07-13T18:24:36.978Z,2.52
2018-07-13T18:27:05.475Z,2.50
2018-07-13T18:29:33.728Z,2.80
2018-07-13T18:32:02.059Z,3.22
2018-07-13T18:34:30.311Z,2.70
2018-07-13T18:36:58.644Z,2.33
2018-07-13T18:39:26.983Z,3.02
2018-07-13T18:41:55.335Z,2.60
2018-07-13T18:44:24.215Z,2.75
2018-07-13T18:46:52.480Z,2.70
2018-07-13T18:49:20.810Z,2.75
2018-07-13T18:51:49.127Z,2.47
2018-07-13T18:54:17.580Z,3.00
2018-07-13T18:56:46.224Z,2.72
2018-07-13T18:59:16.316Z,2.60
2018-07-13T19:01:44.800Z,2.80
2018-07-13T19:04:13.371Z,2.60
2018-07-13T19:06:41.932Z,2.70
2018-07-13T19:09:12.041Z,2.58
2018-07-13T19:11:41.392Z,2.47
2018-07-13T19:14:10.303Z,2.70
2018-07-13T19:16:38.591Z,2.55
2018-07-13T19:19:06.903Z,3.22
2018-07-13T19:21:35.187Z,3.22
2018-07-13T19:24:03.507Z,3.00
2018-07-13T19:26:31.543Z,3.12
2018-07-13T19:28:59.836Z,2.60
2018-07-13T19:31:28.127Z,2.72
2018-07-13T19:33:56.429Z,2.75
2018-07-13T19:36:24.721Z,2.85
2018-07-13T19:38:53.006Z,3.02
2018-07-13T19:41:21.280Z,2.80
2018-07-13T19:43:49.564Z,2.95
2018-07-13T19:46:17.860Z,2.77
2018-07-13T19:48:46.435Z,2.52
2018-07-13T19:51:14.804Z,2.87
2018-07-13T19:53:43.114Z,2.40
2018-07-13T19:56:11.533Z,2.55
2018-07-13T19:58:39.840Z,3.12
2018-07-13T20:01:08.130Z,3.15
2018-07-13T20:03:36.411Z,2.70
2018-07-13T20:06:04.677Z,2.77
2018-07-13T20:08:32.996Z,2.50
2018-07-13T20:11:01.286Z,3.00
2018-07-13T20:13:29.523Z,2.95
2018-07-13T20:15:57.799Z,2.80
2018-07-13T20:18:26.039Z,3.00
2018-07-13T20:20:54.315Z,2.70
2018-07-13T20:23:22.618Z,2.80
2018-07-13T20:25:50.863Z,3.05
2018-07-13T20:28:19.226Z,2.65
2018-07-13T20:30:47.547Z,3.05
2018-07-13T20:33:15.835Z,3.50
2018-07-13T20:35:44.081Z,3.20
2018-07-13T20:38:12.352Z,3.52
2018-07-13T20:40:40.588Z,3.33
2018-07-13T20:43:08.846Z,8.85
2018-07-13T20:45:37.102Z,6.15
2018-07-13T20:48:05.412Z,3.70
2018-07-13T20:50:33.908Z,3.12
2018-07-13T20:53:02.205Z,3.22
2018-07-13T20:55:30.619Z,3.27
2018-07-13T20:57:58.978Z,3.75
2018-07-13T21:00:27.263Z,3.40
2018-07-13T21:02:55.767Z,3.55
2018-07-13T21:05:24.046Z,3.75
2018-07-13T21:07:52.306Z,3.58
2018-07-13T21:10:20.654Z,3.77
2018-07-13T21:12:48.971Z,5.12
2018-07-13T21:15:17.229Z,4.62
2018-07-13T21:17:45.702Z,4.10
2018-07-13T21:20:14.105Z,3.87
2018-07-13T21:22:42.284Z,4.15
2018-07-13T21:25:10.681Z,4.22
2018-07-13T21:27:38.979Z,3.85
2018-07-13T21:30:07.743Z,3.80
2018-07-13T21:32:36.066Z,4.17
2018-07-13T21:35:04.361Z,4.45
2018-07-13T21:37:32.663Z,5.30
2018-07-13T21:40:01.053Z,5.00
2018-07-13T21:42:29.323Z,5.15
2018-07-13T21:44:57.533Z,4.85
2018-07-13T21:47:25.673Z,4.80
2018-07-13T21:49:54.110Z,4.25
2018-07-13T21:52:22.502Z,4.33
2018-07-13T21:54:50.943Z,4.72
2018-07-13T21:57:19.298Z,4.83
2018-07-13T21:59:47.603Z,4.97
2018-07-13T22:02:15.932Z,5.03
2018-07-13T22:04:44.396Z,5.47
2018-07-13T22:07:12.476Z,4.58
2018-07-13T22:09:40.803Z,4.50
2018-07-13T22:12:09.081Z,4.90
2018-07-13T22:14:37.470Z,5.22
2018-07-13T22:17:05.768Z,5.60
2018-07-13T22:19:33.972Z,6.65
2018-07-13T22:22:01.968Z,7.65
2018-07-13T22:24:30.214Z,7.28
2018-07-13T22:26:58.191Z,7.58
2018-07-13T22:29:26.186Z,7.42
2018-07-13T22:31:54.512Z,7.03
2018-07-13T22:34:22.761Z,7.10
2018-07-13T22:36:51.031Z,7.37
2018-07-13T22:39:19.375Z,6.87
2018-07-13T22:41:47.626Z,7.47
2018-07-13T22:44:16.148Z,7.37
2018-07-13T22:46:44.461Z,7.67
2018-07-13T22:49:12.741Z,7.72
2018-07-13T22:51:41.003Z,7.90
2018-07-13T22:54:09.360Z,7.95
2018-07-13T22:56:37.608Z,7.55
2018-07-13T22:59:05.609Z,6.92
2018-07-13T23:01:33.838Z,7.33
2018-07-13T23:04:02.598Z,6.72
2018-07-13T23:06:30.871Z,6.25
2018-07-13T23:08:59.144Z,9.35
2018-07-13T23:11:27.370Z,7.22
2018-07-13T23:13:55.614Z,6.10
2018-07-13T23:16:23.927Z,6.10
2018-07-13T23:18:52.221Z,6.10
2018-07-13T23:21:20.647Z,5.50
2018-07-13T23:23:48.964Z,5.30
2018-07-13T23:26:17.196Z,5.95
2018-07-13T23:28:45.473Z,5.65
2018-07-13T23:31:13.690Z,6.03
2018-07-13T23:33:42.017Z,5.80
2018-07-13T23:36:10.296Z,5.93
2018-07-13T23:38:38.556Z,6.42
2018-07-13T23:41:06.900Z,6.00
2018-07-13T23:43:35.125Z,6.07
2018-07-13T23:46:03.444Z,5.23
2018-07-13T23:48:31.681Z,5.43
2018-07-13T23:50:59.983Z,6.60
2018-07-13T23:53:28.247Z,6.80
2018-07-13T23:55:56.471Z,6.07
2018-07-13T23:58:24.751Z,6.40
